Charles Darwin — GDLS — position and weather

sailwx.info

Track history (hours):
 
Tides and Currents Weather Stations Pressure Air Temp Water Temp Dewpoint Dewpoint Depression Visibility Wind Speed Wind Dir Waves Ship Positions

Oceanographic research ship Charles Darwin (UK)

Detailed information on ship capabilities available from University of Delaware's Ocean Information Center.

Last reported at 2019-Jun-16 10:55 UTC. Time now 2019-Jun-16 14:46 UTC.
Position N 39°12' W 074°19'.

Length 70 m; draft 5.7 m.

Type: Cargo ship. MMSI: 235011460.

Date/timePositionNaut miles runAvg speedWind from/ knotsBaromVisibWave heightAir tempDewpointWater temp
2019-Jun-16 10:55N 39°12' W 074°19'1 1.1
2019-Jun-16 09:55N 39°11' W 074°19'2 1.3
2019-Jun-16 08:01N 39°13' W 074°18'0 0.8
2019-Jun-16 07:50N 39°13' W 074°18'0 1.0
2019-Jun-16 07:20N 39°13' W 074°18'0 0.7
2019-Jun-16 07:00N 39°13' W 074°18'1 0.6
2019-Jun-16 04:57N 39°14' W 074°16'3 4.4
2019-Jun-16 04:13N 39°11' W 074°18'1 4.5
2019-Jun-16 04:00N 39°10' W 074°18'2 4.7
2019-Jun-16 03:30N 39°08' W 074°20'1 2.0
2019-Jun-16 02:59N 39°09' W 074°19'1 2.1
2019-Jun-16 02:30N 39°10' W 074°19'1 2.0
2019-Jun-16 01:51N 39°11' W 074°18'1 1.7
2019-Jun-16 01:25N 39°12' W 074°18'1 1.8
2019-Jun-16 01:00N 39°13' W 074°18'4 0.8
2019-Jun-15 20:08N 39°13' W 074°13'1 4.3
2019-Jun-15 19:59N 39°13' W 074°13'2 3.8
2019-Jun-15 19:30N 39°12' W 074°15'2 3.3
2019-Jun-15 19:00N 39°12' W 074°17'2 4.0
2019-Jun-15 18:30N 39°12' W 074°20'2 4.2
2019-Jun-15 17:57N 39°12' W 074°23'2 4.0
2019-Jun-15 17:29N 39°13' W 074°25'2 2.6
2019-Jun-15 16:49N 39°13' W 074°24'1 4.2
2019-Jun-15 16:30N 39°12' W 074°24'1 2.2
2019-Jun-15 16:00N 39°12' W 074°25'4 1.4
2019-Jun-15 12:53N 39°12' W 074°20'2 4.0
2019-Jun-15 12:29N 39°12' W 074°18'1 2.4
2019-Jun-15 12:00N 39°12' W 074°16'2 4.1
2019-Jun-15 11:30N 39°12' W 074°19'2 4.0
2019-Jun-15 11:00N 39°12' W 074°21'2 4.1
2019-Jun-15 10:30N 39°12' W 074°24'2 4.1
2019-Jun-15 10:00N 39°12' W 074°27'1 1.8
2019-Jun-15 09:30N 39°12' W 074°26'2 3.5
2019-Jun-15 09:00N 39°12' W 074°23'2 3.2
2019-Jun-15 08:30N 39°12' W 074°21'1 2.1
2019-Jun-15 08:00N 39°12' W 074°20'2 3.8
2019-Jun-15 07:30N 39°12' W 074°18'0 1.0
2019-Jun-15 07:00N 39°12' W 074°17'2 3.1
2019-Jun-15 06:30N 39°12' W 074°19'2 3.3
2019-Jun-15 06:00N 39°12' W 074°21'2 3.2
2019-Jun-15 05:30N 39°12' W 074°23'1 2.8
2019-Jun-15 05:00N 39°12' W 074°21'2 3.0
2019-Jun-15 04:30N 39°12' W 074°19'2 3.4
2019-Jun-15 04:00N 39°12' W 074°17'22 6.1
2019-Jun-15 00:21N 39°29' W 073°60'5 9.0
2019-Jun-14 23:49N 39°34' W 073°57'3 9.0
2019-Jun-14 23:30N 39°36' W 073°55'5 9.0
2019-Jun-14 22:58N 39°40' W 073°53'4 8.9
2019-Jun-14 22:30N 39°44' W 073°50'4 8.6
2019-Jun-14 21:59N 39°49' W 073°49'4 8.8
2019-Jun-14 21:30N 39°53' W 073°49'36 8.4
2019-Jun-14 17:12N 40°29' W 073°54'311.5
2019-Jun-14 16:58N 40°30' W 073°57'510.9
2019-Jun-14 16:30N 40°33' W 074°02'611.6
2019-Jun-14 16:00N 40°39' W 074°04'4 7.4
2019-Jun-14 15:30N 40°39' W 074°09'3 4.3
2019-Jun-14 14:53N 40°42' W 074°09'0 0.0
2019-Jun-14 14:23N 40°42' W 074°09'0 0.0
2019-Jun-14 13:47N 40°42' W 074°09'0 0.0
2019-Jun-14 13:20N 40°42' W 074°09'0 0.0
2019-Jun-14 12:59N 40°42' W 074°09'0 0.0
2019-Jun-14 12:23N 40°42' W 074°09'0 0.0
2019-Jun-14 11:59N 40°42' W 074°09'0 0.0
2019-Jun-14 11:29N 40°42' W 074°09'0 0.0
2019-Jun-14 10:59N 40°42' W 074°09'0 0.0
2019-Jun-14 10:26N 40°42' W 074°09'0 0.0
2019-Jun-14 09:47N 40°42' W 074°09'0 0.0
2019-Jun-14 09:26N 40°42' W 074°09'0 0.0
2019-Jun-14 08:50N 40°42' W 074°09'0 0.0
2019-Jun-14 08:26N 40°42' W 074°09'0 0.0
2019-Jun-14 07:14N 40°42' W 074°09'0 0.0
2019-Jun-14 04:50N 40°42' W 074°09'0 0.0
2019-Jun-14 04:26N 40°42' W 074°09'0 0.0
2019-Jun-14 03:14N 40°42' W 074°09'0 0.0
2019-Jun-14 02:56N 40°42' W 074°09'0 0.0
2019-Jun-14 02:26N 40°42' W 074°09'0 0.0
2019-Jun-14 01:56N 40°42' W 074°09'0 0.0
2019-Jun-14 01:26N 40°42' W 074°09'0 0.0
2019-Jun-14 00:56N 40°42' W 074°09'0 0.0
2019-Jun-14 00:29N 40°42' W 074°09'0 0.0
2019-Jun-13 23:44N 40°42' W 074°09'0 0.0
2019-Jun-13 23:26N 40°42' W 074°09'0 0.0
2019-Jun-13 22:26N 40°42' W 074°09'0 0.0
2019-Jun-13 21:38N 40°42' W 074°09'0 0.0
2019-Jun-13 20:14N 40°42' W 074°09'0 0.0
2019-Jun-13 16:14N 40°42' W 074°09'0 0.0
2019-Jun-13 15:44N 40°42' W 074°09'0 0.0
2019-Jun-13 15:20N 40°42' W 074°09'0 0.0
2019-Jun-13 14:44N 40°42' W 074°09'0 0.0
2019-Jun-13 14:20N 40°42' W 074°09'0 0.0
2019-Jun-13 13:53N 40°42' W 074°09'0 0.0
2019-Jun-13 13:08N 40°42' W 074°09'0 0.0
2019-Jun-13 12:26N 40°42' W 074°09'0 0.0
2019-Jun-13 11:44N 40°42' W 074°09'0 0.0
2019-Jun-13 11:15N 40°42' W 074°09'0 1.0
2019-Jun-13 10:56N 40°42' W 074°08'3 6.9
2019-Jun-13 10:30N 40°39' W 074°08'4 7.9
2019-Jun-13 10:00N 40°39' W 074°03'3 5.7
2019-Jun-13 09:30N 40°36' W 074°02'4 7.7
2019-Jun-13 09:00N 40°32' W 074°01'510.8
2019-Jun-13 08:30N 40°29' W 073°55'510.4
2019-Jun-13 08:00N 40°27' W 073°49'3 6.2
2019-Jun-13 07:30N 40°24' W 073°47'3 5.9
2019-Jun-13 07:00N 40°21' W 073°47'3 5.8
2019-Jun-13 06:30N 40°19' W 073°46'3 6.3
2019-Jun-13 06:00N 40°15' W 073°46'4 6.9
2019-Jun-13 05:29N 40°12' W 073°45'15 6.9
2019-Jun-13 03:13N 39°56' W 073°43'8 7.1
2019-Jun-13 02:10N 39°49' W 073°42'7 7.3
2019-Jun-13 01:13N 39°42' W 073°44'2 8.2
2019-Jun-13 00:58N 39°40' W 073°45'6 8.1
2019-Jun-13 00:10N 39°35' W 073°50'2 7.9
2019-Jun-12 23:58N 39°34' W 073°51'4 7.9
2019-Jun-12 23:30N 39°31' W 073°54'7 8.0
2019-Jun-12 22:40N 39°25' W 073°59'17 8.2
2019-Jun-12 20:36N 39°14' W 074°16'2 3.5
2019-Jun-12 19:58N 39°13' W 074°17'0 0.5
2019-Jun-12 19:20N 39°12' W 074°18'3 5.3
2019-Jun-12 18:46N 39°12' W 074°22'2 2.7
2019-Jun-12 18:12N 39°13' W 074°23'1 1.2
2019-Jun-12 17:30N 39°12' W 074°24'12 1.2
2019-Jun-12 08:09N 39°07' W 074°11'6 0.2
2019-Jun-11 04:16N 39°12' W 074°13'5 1.8
2019-Jun-11 01:47N 39°12' W 074°19'1 1.9
2019-Jun-11 01:26N 39°12' W 074°20'1 2.1
2019-Jun-11 00:57N 39°12' W 074°21'1 2.0
2019-Jun-11 00:30N 39°12' W 074°22'1 2.3
2019-Jun-10 23:59N 39°12' W 074°24'1 2.2
2019-Jun-10 23:30N 39°12' W 074°25'1 1.3
2019-Jun-10 22:36N 39°12' W 074°23'1 3.5
2019-Jun-10 22:26N 39°12' W 074°23'2 3.5
2019-Jun-10 21:58N 39°12' W 074°21'5 1.9
2019-Jun-10 19:06N 39°14' W 074°14'1 4.1
2019-Jun-10 18:57N 39°13' W 074°14'3 4.1
2019-Jun-10 18:17N 39°10' W 074°13'1 4.3
2019-Jun-10 17:58N 39°09' W 074°12'2 4.3
2019-Jun-10 17:29N 39°07' W 074°11'3 1.3
2019-Jun-10 15:10N 39°10' W 074°12'0 2.0
2019-Jun-10 14:59N 39°10' W 074°13'1 2.0
2019-Jun-10 14:27N 39°11' W 074°14'7 0.5
2019-Jun-10 01:17N 39°12' W 074°22'1 1.5
2019-Jun-10 00:54N 39°12' W 074°23'1 1.6
2019-Jun-10 00:30N 39°12' W 074°24'1 1.5
2019-Jun-09 23:59N 39°12' W 074°25'1 1.1
2019-Jun-09 23:30N 39°12' W 074°25'5 5.2
2019-Jun-09 22:35N 39°12' W 074°19'0 1.4
2019-Jun-09 22:30N 39°12' W 074°19'1 1.1
2019-Jun-09 21:59N 39°12' W 074°20'1 1.2
2019-Jun-09 21:30N 39°12' W 074°21'1 1.6
2019-Jun-09 20:57N 39°12' W 074°22'1 1.1
2019-Jun-09 20:28N 39°12' W 074°23'1 1.2
2019-Jun-09 19:59N 39°12' W 074°23'6 3.2
2019-Jun-09 18:13N 39°12' W 074°16'1 3.9
2019-Jun-09 18:00N 39°12' W 074°15'1 1.4
2019-Jun-09 17:30N 39°12' W 074°16'1 1.5
2019-Jun-09 16:42N 39°12' W 074°17'0 1.7
2019-Jun-09 16:25N 39°12' W 074°18'1 1.4
2019-Jun-09 16:00N 39°13' W 074°19'1 1.2
2019-Jun-09 15:25N 39°13' W 074°20'1 1.4
2019-Jun-09 14:56N 39°13' W 074°21'1 1.6
2019-Jun-09 14:27N 39°13' W 074°22'1 1.6
2019-Jun-09 13:41N 39°13' W 074°23'0 1.4
2019-Jun-09 13:27N 39°13' W 074°24'1 1.2
2019-Jun-09 13:00N 39°13' W 074°24'0 0.8
2019-Jun-09 12:30N 39°13' W 074°24'1 1.5
2019-Jun-09 12:00N 39°13' W 074°25'1 1.1
2019-Jun-09 11:30N 39°13' W 074°24'2 4.5
2019-Jun-09 11:00N 39°13' W 074°21'0 0.2
2019-Jun-09 10:31N 39°13' W 074°21'2 3.3
2019-Jun-09 10:00N 39°12' W 074°19'2 4.3
2019-Jun-09 09:30N 39°12' W 074°16'1 1.9
2019-Jun-09 08:58N 39°12' W 074°18'1 1.8
2019-Jun-09 08:31N 39°12' W 074°19'1 2.1
2019-Jun-09 07:59N 39°12' W 074°20'1 2.1
2019-Jun-09 07:31N 39°13' W 074°21'1 2.1
2019-Jun-09 07:01N 39°12' W 074°20'2 4.0
2019-Jun-09 06:30N 39°12' W 074°17'2 4.1
2019-Jun-09 06:01N 39°12' W 074°15'1 1.3
2019-Jun-09 05:30N 39°12' W 074°14'1 2.6
2019-Jun-09 05:01N 39°12' W 074°16'3 2.6
2019-Jun-09 04:01N 39°12' W 074°19'1 2.6
2019-Jun-09 03:30N 39°12' W 074°21'2 4.3
2019-Jun-09 03:00N 39°12' W 074°18'2 4.8
2019-Jun-09 02:29N 39°12' W 074°15'2 4.0
2019-Jun-09 02:00N 39°12' W 074°12'1 2.7
2019-Jun-09 01:30N 39°12' W 074°14'1 2.3
2019-Jun-09 00:58N 39°12' W 074°16'1 1.9
2019-Jun-09 00:29N 39°12' W 074°17'1 2.0
2019-Jun-08 23:59N 39°12' W 074°18'2 2.2
2019-Jun-08 23:12N 39°13' W 074°20'3 2.3
2019-Jun-08 21:52N 39°13' W 074°24'2 1.0
2019-Jun-08 19:33N 39°12' W 074°21'3 4.0
2019-Jun-08 18:41N 39°12' W 074°26'4 3.7
2019-Jun-08 17:28N 39°12' W 074°20'4 3.9
2019-Jun-08 16:21N 39°12' W 074°14'2 3.9
2019-Jun-08 15:57N 39°12' W 074°12'1 2.3
2019-Jun-08 15:30N 39°12' W 074°11'2 3.5
2019-Jun-08 15:00N 39°12' W 074°13'2 3.3
2019-Jun-08 14:30N 39°12' W 074°15'2 3.2
2019-Jun-08 14:00N 39°12' W 074°17'2 3.2
2019-Jun-08 13:30N 39°12' W 074°20'2 4.0
2019-Jun-08 13:00N 39°12' W 074°22'1 2.6
2019-Jun-08 12:27N 39°13' W 074°24'2 4.0
2019-Jun-08 11:59N 39°12' W 074°22'2 4.1
2019-Jun-08 11:29N 39°12' W 074°19'1 3.0
2019-Jun-08 11:00N 39°12' W 074°17'2 3.9
2019-Jun-08 10:30N 39°12' W 074°20'2 4.0
2019-Jun-08 10:00N 39°12' W 074°22'1 1.4
2019-Jun-08 09:30N 39°12' W 074°23'0 0.3
2019-Jun-08 09:01N 39°12' W 074°23'2 4.1
2019-Jun-08 08:29N 39°12' W 074°20'2 3.8
2019-Jun-08 08:00N 39°12' W 074°18'2 3.2
2019-Jun-08 07:30N 39°12' W 074°20'2 3.2
2019-Jun-08 07:00N 39°12' W 074°22'2 3.2
2019-Jun-08 06:31N 39°12' W 074°24'1 2.8
2019-Jun-08 06:01N 39°13' W 074°22'2 3.3
2019-Jun-08 05:30N 39°13' W 074°20'2 3.3
2019-Jun-08 05:00N 39°13' W 074°18'1 1.5
2019-Jun-08 04:29N 39°12' W 074°17'2 3.6
2019-Jun-08 04:00N 39°12' W 074°19'2 3.5
2019-Jun-08 03:31N 39°12' W 074°21'2 3.3
2019-Jun-08 03:01N 39°12' W 074°24'2 3.1
2019-Jun-08 02:30N 39°13' W 074°22'2 3.5
2019-Jun-08 02:01N 39°13' W 074°19'0 0.8
2019-Jun-08 01:30N 39°12' W 074°19'2 3.5
2019-Jun-08 01:00N 39°12' W 074°21'2 3.6
2019-Jun-08 00:30N 39°12' W 074°23'0 0.4
2019-Jun-08 00:00N 39°13' W 074°24'2 4.2
2019-Jun-07 23:30N 39°11' W 074°24'1 1.6
2019-Jun-07 22:54N 39°12' W 074°24'2 4.0
2019-Jun-07 22:27N 39°13' W 074°23'2 3.5
2019-Jun-07 21:48N 39°11' W 074°24'1 3.9
2019-Jun-07 21:29N 39°10' W 074°24'1 1.9
2019-Jun-07 20:45N 39°11' W 074°24'2 4.2
2019-Jun-07 20:24N 39°13' W 074°23'3 0.6
2019-Jun-07 14:50N 39°09' W 074°25'4 3.2
2019-Jun-07 13:41N 39°13' W 074°23'0 2.4
2019-Jun-07 13:30N 39°12' W 074°23'2 3.5
2019-Jun-07 13:00N 39°11' W 074°24'2 3.8
2019-Jun-07 12:30N 39°09' W 074°25'1 2.5
2019-Jun-07 11:55N 39°11' W 074°24'1 1.9
2019-Jun-07 11:30N 39°10' W 074°25'2 3.6
2019-Jun-07 11:00N 39°11' W 074°24'0 0.8
2019-Jun-07 10:31N 39°11' W 074°24'1 1.8
2019-Jun-07 10:00N 39°12' W 074°24'1 2.3
2019-Jun-07 09:30N 39°13' W 074°23'2 3.4
2019-Jun-07 09:00N 39°11' W 074°24'0 0.7
2019-Jun-07 08:22N 39°12' W 074°24'2 3.4
2019-Jun-07 07:43N 39°14' W 074°23'1 2.5
2019-Jun-07 07:23N 39°14' W 074°23'2 3.5
2019-Jun-07 06:46N 39°14' W 074°20'1 3.4
2019-Jun-07 06:30N 39°14' W 074°19'2 3.4
2019-Jun-07 05:53N 39°13' W 074°16'2 0.1
2019-Jun-06 12:09N 39°11' W 074°16'1 5.7
2019-Jun-06 11:57N 39°10' W 074°16'  
Track history (hours):
 
Tides and Currents Weather Stations Pressure Air Temp Water Temp Dewpoint Dewpoint Depression Visibility Wind Speed Wind Dir Waves Ship Positions

Oceanographic research ship Charles Darwin (UK)

Detailed information on ship capabilities available from University of Delaware's Ocean Information Center.

Last reported at 2019-Jun-16 10:55 UTC. Time now 2019-Jun-16 14:46 UTC.
Position N 39°12' W 074°19'.

Length 70 m; draft 5.7 m.

Type: Cargo ship. MMSI: 235011460.

Date/timePositionNaut miles runAvg speedWind from/ knotsBaromVisibWave heightAir tempDewpointWater temp
2019-Jun-16 10:55N 39°12' W 074°19'1 1.1
2019-Jun-16 09:55N 39°11' W 074°19'2 1.3
2019-Jun-16 08:01N 39°13' W 074°18'0 0.8
2019-Jun-16 07:50N 39°13' W 074°18'0 1.0
2019-Jun-16 07:20N 39°13' W 074°18'0 0.7
2019-Jun-16 07:00N 39°13' W 074°18'1 0.6
2019-Jun-16 04:57N 39°14' W 074°16'3 4.4
2019-Jun-16 04:13N 39°11' W 074°18'1 4.5
2019-Jun-16 04:00N 39°10' W 074°18'2 4.7
2019-Jun-16 03:30N 39°08' W 074°20'1 2.0
2019-Jun-16 02:59N 39°09' W 074°19'1 2.1
2019-Jun-16 02:30N 39°10' W 074°19'1 2.0
2019-Jun-16 01:51N 39°11' W 074°18'1 1.7
2019-Jun-16 01:25N 39°12' W 074°18'1 1.8
2019-Jun-16 01:00N 39°13' W 074°18'4 0.8
2019-Jun-15 20:08N 39°13' W 074°13'1 4.3
2019-Jun-15 19:59N 39°13' W 074°13'2 3.8
2019-Jun-15 19:30N 39°12' W 074°15'2 3.3
2019-Jun-15 19:00N 39°12' W 074°17'2 4.0
2019-Jun-15 18:30N 39°12' W 074°20'2 4.2
2019-Jun-15 17:57N 39°12' W 074°23'2 4.0
2019-Jun-15 17:29N 39°13' W 074°25'2 2.6
2019-Jun-15 16:49N 39°13' W 074°24'1 4.2
2019-Jun-15 16:30N 39°12' W 074°24'1 2.2
2019-Jun-15 16:00N 39°12' W 074°25'4 1.4
2019-Jun-15 12:53N 39°12' W 074°20'2 4.0
2019-Jun-15 12:29N 39°12' W 074°18'1 2.4
2019-Jun-15 12:00N 39°12' W 074°16'2 4.1
2019-Jun-15 11:30N 39°12' W 074°19'2 4.0
2019-Jun-15 11:00N 39°12' W 074°21'2 4.1
2019-Jun-15 10:30N 39°12' W 074°24'2 4.1
2019-Jun-15 10:00N 39°12' W 074°27'1 1.8
2019-Jun-15 09:30N 39°12' W 074°26'2 3.5
2019-Jun-15 09:00N 39°12' W 074°23'2 3.2
2019-Jun-15 08:30N 39°12' W 074°21'1 2.1
2019-Jun-15 08:00N 39°12' W 074°20'2 3.8
2019-Jun-15 07:30N 39°12' W 074°18'0 1.0
2019-Jun-15 07:00N 39°12' W 074°17'2 3.1
2019-Jun-15 06:30N 39°12' W 074°19'2 3.3
2019-Jun-15 06:00N 39°12' W 074°21'2 3.2
2019-Jun-15 05:30N 39°12' W 074°23'1 2.8
2019-Jun-15 05:00N 39°12' W 074°21'2 3.0
2019-Jun-15 04:30N 39°12' W 074°19'2 3.4
2019-Jun-15 04:00N 39°12' W 074°17'22 6.1
2019-Jun-15 00:21N 39°29' W 073°60'5 9.0
2019-Jun-14 23:49N 39°34' W 073°57'3 9.0
2019-Jun-14 23:30N 39°36' W 073°55'5 9.0
2019-Jun-14 22:58N 39°40' W 073°53'4 8.9
2019-Jun-14 22:30N 39°44' W 073°50'4 8.6
2019-Jun-14 21:59N 39°49' W 073°49'4 8.8
2019-Jun-14 21:30N 39°53' W 073°49'36 8.4
2019-Jun-14 17:12N 40°29' W 073°54'311.5
2019-Jun-14 16:58N 40°30' W 073°57'510.9
2019-Jun-14 16:30N 40°33' W 074°02'611.6
2019-Jun-14 16:00N 40°39' W 074°04'4 7.4
2019-Jun-14 15:30N 40°39' W 074°09'3 4.3
2019-Jun-14 14:53N 40°42' W 074°09'0 0.0
2019-Jun-14 14:23N 40°42' W 074°09'0 0.0
2019-Jun-14 13:47N 40°42' W 074°09'0 0.0
2019-Jun-14 13:20N 40°42' W 074°09'0 0.0
2019-Jun-14 12:59N 40°42' W 074°09'0 0.0
2019-Jun-14 12:23N 40°42' W 074°09'0 0.0
2019-Jun-14 11:59N 40°42' W 074°09'0 0.0
2019-Jun-14 11:29N 40°42' W 074°09'0 0.0
2019-Jun-14 10:59N 40°42' W 074°09'0 0.0
2019-Jun-14 10:26N 40°42' W 074°09'0 0.0
2019-Jun-14 09:47N 40°42' W 074°09'0 0.0
2019-Jun-14 09:26N 40°42' W 074°09'0 0.0
2019-Jun-14 08:50N 40°42' W 074°09'0 0.0
2019-Jun-14 08:26N 40°42' W 074°09'0 0.0
2019-Jun-14 07:14N 40°42' W 074°09'0 0.0
2019-Jun-14 04:50N 40°42' W 074°09'0 0.0
2019-Jun-14 04:26N 40°42' W 074°09'0 0.0
2019-Jun-14 03:14N 40°42' W 074°09'0 0.0
2019-Jun-14 02:56N 40°42' W 074°09'0 0.0
2019-Jun-14 02:26N 40°42' W 074°09'0 0.0
2019-Jun-14 01:56N 40°42' W 074°09'0 0.0
2019-Jun-14 01:26N 40°42' W 074°09'0 0.0
2019-Jun-14 00:56N 40°42' W 074°09'0 0.0
2019-Jun-14 00:29N 40°42' W 074°09'0 0.0
2019-Jun-13 23:44N 40°42' W 074°09'0 0.0
2019-Jun-13 23:26N 40°42' W 074°09'0 0.0
2019-Jun-13 22:26N 40°42' W 074°09'0 0.0
2019-Jun-13 21:38N 40°42' W 074°09'0 0.0
2019-Jun-13 20:14N 40°42' W 074°09'0 0.0
2019-Jun-13 16:14N 40°42' W 074°09'0 0.0
2019-Jun-13 15:44N 40°42' W 074°09'0 0.0
2019-Jun-13 15:20N 40°42' W 074°09'0 0.0
2019-Jun-13 14:44N 40°42' W 074°09'0 0.0
2019-Jun-13 14:20N 40°42' W 074°09'0 0.0
2019-Jun-13 13:53N 40°42' W 074°09'0 0.0
2019-Jun-13 13:08N 40°42' W 074°09'0 0.0
2019-Jun-13 12:26N 40°42' W 074°09'0 0.0
2019-Jun-13 11:44N 40°42' W 074°09'0 0.0
2019-Jun-13 11:15N 40°42' W 074°09'0 1.0
2019-Jun-13 10:56N 40°42' W 074°08'3 6.9
2019-Jun-13 10:30N 40°39' W 074°08'4 7.9
2019-Jun-13 10:00N 40°39' W 074°03'3 5.7
2019-Jun-13 09:30N 40°36' W 074°02'4 7.7
2019-Jun-13 09:00N 40°32' W 074°01'510.8
2019-Jun-13 08:30N 40°29' W 073°55'510.4
2019-Jun-13 08:00N 40°27' W 073°49'3 6.2
2019-Jun-13 07:30N 40°24' W 073°47'3 5.9
2019-Jun-13 07:00N 40°21' W 073°47'3 5.8
2019-Jun-13 06:30N 40°19' W 073°46'3 6.3
2019-Jun-13 06:00N 40°15' W 073°46'4 6.9
2019-Jun-13 05:29N 40°12' W 073°45'15 6.9
2019-Jun-13 03:13N 39°56' W 073°43'8 7.1
2019-Jun-13 02:10N 39°49' W 073°42'7 7.3
2019-Jun-13 01:13N 39°42' W 073°44'2 8.2
2019-Jun-13 00:58N 39°40' W 073°45'6 8.1
2019-Jun-13 00:10N 39°35' W 073°50'2 7.9
2019-Jun-12 23:58N 39°34' W 073°51'4 7.9
2019-Jun-12 23:30N 39°31' W 073°54'7 8.0
2019-Jun-12 22:40N 39°25' W 073°59'17 8.2
2019-Jun-12 20:36N 39°14' W 074°16'2 3.5
2019-Jun-12 19:58N 39°13' W 074°17'0 0.5
2019-Jun-12 19:20N 39°12' W 074°18'3 5.3
2019-Jun-12 18:46N 39°12' W 074°22'2 2.7
2019-Jun-12 18:12N 39°13' W 074°23'1 1.2
2019-Jun-12 17:30N 39°12' W 074°24'12 1.2
2019-Jun-12 08:09N 39°07' W 074°11'6 0.2
2019-Jun-11 04:16N 39°12' W 074°13'5 1.8
2019-Jun-11 01:47N 39°12' W 074°19'1 1.9
2019-Jun-11 01:26N 39°12' W 074°20'1 2.1
2019-Jun-11 00:57N 39°12' W 074°21'1 2.0
2019-Jun-11 00:30N 39°12' W 074°22'1 2.3
2019-Jun-10 23:59N 39°12' W 074°24'1 2.2
2019-Jun-10 23:30N 39°12' W 074°25'1 1.3
2019-Jun-10 22:36N 39°12' W 074°23'1 3.5
2019-Jun-10 22:26N 39°12' W 074°23'2 3.5
2019-Jun-10 21:58N 39°12' W 074°21'5 1.9
2019-Jun-10 19:06N 39°14' W 074°14'1 4.1
2019-Jun-10 18:57N 39°13' W 074°14'3 4.1
2019-Jun-10 18:17N 39°10' W 074°13'1 4.3
2019-Jun-10 17:58N 39°09' W 074°12'2 4.3
2019-Jun-10 17:29N 39°07' W 074°11'3 1.3
2019-Jun-10 15:10N 39°10' W 074°12'0 2.0
2019-Jun-10 14:59N 39°10' W 074°13'1 2.0
2019-Jun-10 14:27N 39°11' W 074°14'7 0.5
2019-Jun-10 01:17N 39°12' W 074°22'1 1.5
2019-Jun-10 00:54N 39°12' W 074°23'1 1.6
2019-Jun-10 00:30N 39°12' W 074°24'1 1.5
2019-Jun-09 23:59N 39°12' W 074°25'1 1.1
2019-Jun-09 23:30N 39°12' W 074°25'5 5.2
2019-Jun-09 22:35N 39°12' W 074°19'0 1.4
2019-Jun-09 22:30N 39°12' W 074°19'1 1.1
2019-Jun-09 21:59N 39°12' W 074°20'1 1.2
2019-Jun-09 21:30N 39°12' W 074°21'1 1.6
2019-Jun-09 20:57N 39°12' W 074°22'1 1.1
2019-Jun-09 20:28N 39°12' W 074°23'1 1.2
2019-Jun-09 19:59N 39°12' W 074°23'6 3.2
2019-Jun-09 18:13N 39°12' W 074°16'1 3.9
2019-Jun-09 18:00N 39°12' W 074°15'1 1.4
2019-Jun-09 17:30N 39°12' W 074°16'1 1.5
2019-Jun-09 16:42N 39°12' W 074°17'0 1.7
2019-Jun-09 16:25N 39°12' W 074°18'1 1.4
2019-Jun-09 16:00N 39°13' W 074°19'1 1.2
2019-Jun-09 15:25N 39°13' W 074°20'1 1.4
2019-Jun-09 14:56N 39°13' W 074°21'1 1.6
2019-Jun-09 14:27N 39°13' W 074°22'1 1.6
2019-Jun-09 13:41N 39°13' W 074°23'0 1.4
2019-Jun-09 13:27N 39°13' W 074°24'1 1.2
2019-Jun-09 13:00N 39°13' W 074°24'0 0.8
2019-Jun-09 12:30N 39°13' W 074°24'1 1.5
2019-Jun-09 12:00N 39°13' W 074°25'1 1.1
2019-Jun-09 11:30N 39°13' W 074°24'2 4.5
2019-Jun-09 11:00N 39°13' W 074°21'0 0.2
2019-Jun-09 10:31N 39°13' W 074°21'2 3.3
2019-Jun-09 10:00N 39°12' W 074°19'2 4.3
2019-Jun-09 09:30N 39°12' W 074°16'1 1.9
2019-Jun-09 08:58N 39°12' W 074°18'1 1.8
2019-Jun-09 08:31N 39°12' W 074°19'1 2.1
2019-Jun-09 07:59N 39°12' W 074°20'1 2.1
2019-Jun-09 07:31N 39°13' W 074°21'1 2.1
2019-Jun-09 07:01N 39°12' W 074°20'2 4.0
2019-Jun-09 06:30N 39°12' W 074°17'2 4.1
2019-Jun-09 06:01N 39°12' W 074°15'1 1.3
2019-Jun-09 05:30N 39°12' W 074°14'1 2.6
2019-Jun-09 05:01N 39°12' W 074°16'3 2.6
2019-Jun-09 04:01N 39°12' W 074°19'1 2.6
2019-Jun-09 03:30N 39°12' W 074°21'2 4.3
2019-Jun-09 03:00N 39°12' W 074°18'2 4.8
2019-Jun-09 02:29N 39°12' W 074°15'2 4.0
2019-Jun-09 02:00N 39°12' W 074°12'1 2.7
2019-Jun-09 01:30N 39°12' W 074°14'1 2.3
2019-Jun-09 00:58N 39°12' W 074°16'1 1.9
2019-Jun-09 00:29N 39°12' W 074°17'1 2.0
2019-Jun-08 23:59N 39°12' W 074°18'2 2.2
2019-Jun-08 23:12N 39°13' W 074°20'3 2.3
2019-Jun-08 21:52N 39°13' W 074°24'2 1.0
2019-Jun-08 19:33N 39°12' W 074°21'3 4.0
2019-Jun-08 18:41N 39°12' W 074°26'4 3.7
2019-Jun-08 17:28N 39°12' W 074°20'4 3.9
2019-Jun-08 16:21N 39°12' W 074°14'2 3.9
2019-Jun-08 15:57N 39°12' W 074°12'1 2.3
2019-Jun-08 15:30N 39°12' W 074°11'2 3.5
2019-Jun-08 15:00N 39°12' W 074°13'2 3.3
2019-Jun-08 14:30N 39°12' W 074°15'2 3.2
2019-Jun-08 14:00N 39°12' W 074°17'2 3.2
2019-Jun-08 13:30N 39°12' W 074°20'2 4.0
2019-Jun-08 13:00N 39°12' W 074°22'1 2.6
2019-Jun-08 12:27N 39°13' W 074°24'2 4.0
2019-Jun-08 11:59N 39°12' W 074°22'2 4.1
2019-Jun-08 11:29N 39°12' W 074°19'1 3.0
2019-Jun-08 11:00N 39°12' W 074°17'2 3.9
2019-Jun-08 10:30N 39°12' W 074°20'2 4.0
2019-Jun-08 10:00N 39°12' W 074°22'1 1.4
2019-Jun-08 09:30N 39°12' W 074°23'0 0.3
2019-Jun-08 09:01N 39°12' W 074°23'2 4.1
2019-Jun-08 08:29N 39°12' W 074°20'2 3.8
2019-Jun-08 08:00N 39°12' W 074°18'2 3.2
2019-Jun-08 07:30N 39°12' W 074°20'2 3.2
2019-Jun-08 07:00N 39°12' W 074°22'2 3.2
2019-Jun-08 06:31N 39°12' W 074°24'1 2.8
2019-Jun-08 06:01N 39°13' W 074°22'2 3.3
2019-Jun-08 05:30N 39°13' W 074°20'2 3.3
2019-Jun-08 05:00N 39°13' W 074°18'1 1.5
2019-Jun-08 04:29N 39°12' W 074°17'2 3.6
2019-Jun-08 04:00N 39°12' W 074°19'2 3.5
2019-Jun-08 03:31N 39°12' W 074°21'2 3.3
2019-Jun-08 03:01N 39°12' W 074°24'2 3.1
2019-Jun-08 02:30N 39°13' W 074°22'2 3.5
2019-Jun-08 02:01N 39°13' W 074°19'0 0.8
2019-Jun-08 01:30N 39°12' W 074°19'2 3.5
2019-Jun-08 01:00N 39°12' W 074°21'2 3.6
2019-Jun-08 00:30N 39°12' W 074°23'0 0.4
2019-Jun-08 00:00N 39°13' W 074°24'2 4.2
2019-Jun-07 23:30N 39°11' W 074°24'1 1.6
2019-Jun-07 22:54N 39°12' W 074°24'2 4.0
2019-Jun-07 22:27N 39°13' W 074°23'2 3.5
2019-Jun-07 21:48N 39°11' W 074°24'1 3.9
2019-Jun-07 21:29N 39°10' W 074°24'1 1.9
2019-Jun-07 20:45N 39°11' W 074°24'2 4.2
2019-Jun-07 20:24N 39°13' W 074°23'3 0.6
2019-Jun-07 14:50N 39°09' W 074°25'4 3.2
2019-Jun-07 13:41N 39°13' W 074°23'0 2.4
2019-Jun-07 13:30N 39°12' W 074°23'2 3.5
2019-Jun-07 13:00N 39°11' W 074°24'2 3.8
2019-Jun-07 12:30N 39°09' W 074°25'1 2.5
2019-Jun-07 11:55N 39°11' W 074°24'1 1.9
2019-Jun-07 11:30N 39°10' W 074°25'2 3.6
2019-Jun-07 11:00N 39°11' W 074°24'0 0.8
2019-Jun-07 10:31N 39°11' W 074°24'1 1.8
2019-Jun-07 10:00N 39°12' W 074°24'1 2.3
2019-Jun-07 09:30N 39°13' W 074°23'2 3.4
2019-Jun-07 09:00N 39°11' W 074°24'0 0.7
2019-Jun-07 08:22N 39°12' W 074°24'2 3.4
2019-Jun-07 07:43N 39°14' W 074°23'1 2.5
2019-Jun-07 07:23N 39°14' W 074°23'2 3.5
2019-Jun-07 06:46N 39°14' W 074°20'1 3.4
2019-Jun-07 06:30N 39°14' W 074°19'2 3.4
2019-Jun-07 05:53N 39°13' W 074°16'2 0.1
2019-Jun-06 12:09N 39°11' W 074°16'1 5.7
2019-Jun-06 11:57N 39°10' W 074°16'  

Dump ship's entire track history